Ana Sayfa
METAR-TAF:

METAR-TAF

Havaalanları :

Sanford-Lee County Regional Airport

Sanford, Kuzey Carolina, Amerika Birleşik Devletleri

Enlem: 35-34-57N, Boylam: 079-06-05W, yükseklik: 75 m

Güncel hava durumu gözlemi

Rapor saat 07:15 UTC de 13 saat ve 13 dakika önce yapıldı.
Sakin rüzgar
Sıcaklık 18°C
Nem 100%
Basınç 1015 hPa
Görüş mesafesi: 3.2 km
Açık gökyüzü
Pus

METAR: KTTA 310715Z AUTO 00000KT 2SM BR CLR 18/18 A2998 RMK AO2 VIS 1V5 T01810177

Saat: 16:28 (20:28 UTC)


TAF: eksik

4.000'den fazla havaalanı için hava durumu gözlemleri ve tahminleri (METAR ve TAF raporları).

Kullanılabilir istasyonlar harita üzerinde sarı ve kırmızı noktalarla gösterilir.

İstasyonun adını görmek için fareyi noktanın üzerinde gezdirin.

Sonrasında hava gözlem ve tahminlerini görmek için tıklayın.

Haritayı değiştirmek için: yaklaştırmak için siyah artı işaretli yeşil düğmeye ve uzaklaştırmak için de eksi işaretli düğmeye hızla tıklayın; bitişik haritalar için yeşil okları kullanın.


METAR-TAF: